sensor_id;sensor_type;location;lat;lon;timestamp;P1;durP1;ratioP1;P2;durP2;ratioP2
23498;SDS011;11926;48.120;11.562;2023-06-10T00:00:10;12.05;;;6.63;;
23498;SDS011;11926;48.120;11.562;2023-06-10T00:03:00;10.18;;;6.32;;
23498;SDS011;11926;48.120;11.562;2023-06-10T00:05:48;6.72;;;5.38;;
23498;SDS011;11926;48.120;11.562;2023-06-10T00:08:35;7.47;;;5.55;;
23498;SDS011;11926;48.120;11.562;2023-06-10T00:11:24;6.22;;;5.38;;
23498;SDS011;11926;48.120;11.562;2023-06-10T00:14:11;6.93;;;5.60;;
23498;SDS011;11926;48.120;11.562;2023-06-10T00:16:59;8.05;;;5.80;;
23498;SDS011;11926;48.120;11.562;2023-06-10T00:19:49;8.05;;;5.90;;
23498;SDS011;11926;48.120;11.562;2023-06-10T00:22:35;8.55;;;5.43;;
23498;SDS011;11926;48.120;11.562;2023-06-10T00:25:22;6.40;;;5.38;;
23498;SDS011;11926;48.120;11.562;2023-06-10T00:28:12;7.88;;;5.53;;
23498;SDS011;11926;48.120;11.562;2023-06-10T00:30:59;6.32;;;5.22;;
23498;SDS011;11926;48.120;11.562;2023-06-10T00:33:46;9.15;;;5.38;;
23498;SDS011;11926;48.120;11.562;2023-06-10T00:36:33;9.05;;;5.60;;
23498;SDS011;11926;48.120;11.562;2023-06-10T00:39:22;6.45;;;5.43;;
23498;SDS011;11926;48.120;11.562;2023-06-10T00:42:09;8.70;;;4.97;;
23498;SDS011;11926;48.120;11.562;2023-06-10T00:44:57;6.35;;;4.70;;
23498;SDS011;11926;48.120;11.562;2023-06-10T00:47:44;9.38;;;5.32;;
23498;SDS011;11926;48.120;11.562;2023-06-10T00:50:32;5.70;;;5.00;;
23498;SDS011;11926;48.120;11.562;2023-06-10T00:53:21;8.15;;;5.50;;
23498;SDS011;11926;48.120;11.562;2023-06-10T00:56:08;6.40;;;5.15;;
23498;SDS011;11926;48.120;11.562;2023-06-10T00:58:56;11.80;;;5.65;;
23498;SDS011;11926;48.120;11.562;2023-06-10T01:01:45;6.68;;;5.32;;
23498;SDS011;11926;48.120;11.562;2023-06-10T01:04:33;7.38;;;5.28;;
23498;SDS011;11926;48.120;11.562;2023-06-10T01:07:25;6.90;;;5.43;;
23498;SDS011;11926;48.120;11.562;2023-06-10T01:10:20;8.27;;;6.15;;
23498;SDS011;11926;48.120;11.562;2023-06-10T01:13:13;9.38;;;6.03;;
23498;SDS011;11926;48.120;11.562;2023-06-10T01:16:03;7.15;;;6.07;;
23498;SDS011;11926;48.120;11.562;2023-06-10T01:18:52;8.35;;;6.18;;
23498;SDS011;11926;48.120;11.562;2023-06-10T01:21:41;7.35;;;6.40;;
23498;SDS011;11926;48.120;11.562;2023-06-10T01:24:36;8.13;;;6.38;;
23498;SDS011;11926;48.120;11.562;2023-06-10T01:27:26;8.43;;;6.60;;
23498;SDS011;11926;48.120;11.562;2023-06-10T01:30:20;7.13;;;6.07;;
23498;SDS011;11926;48.120;11.562;2023-06-10T01:33:15;7.85;;;6.13;;
23498;SDS011;11926;48.120;11.562;2023-06-10T01:36:09;6.95;;;5.97;;
23498;SDS011;11926;48.120;11.562;2023-06-10T01:38:59;9.13;;;6.95;;
23498;SDS011;11926;48.120;11.562;2023-06-10T01:41:47;8.38;;;6.43;;
23498;SDS011;11926;48.120;11.562;2023-06-10T01:44:35;9.38;;;6.40;;
23498;SDS011;11926;48.120;11.562;2023-06-10T01:47:26;8.38;;;6.68;;
23498;SDS011;11926;48.120;11.562;2023-06-10T01:50:13;10.32;;;7.03;;
23498;SDS011;11926;48.120;11.562;2023-06-10T01:53:01;10.88;;;7.15;;
23498;SDS011;11926;48.120;11.562;2023-06-10T01:55:49;9.32;;;6.80;;
23498;SDS011;11926;48.120;11.562;2023-06-10T01:58:36;10.43;;;7.15;;
23498;SDS011;11926;48.120;11.562;2023-06-10T02:01:24;11.32;;;7.63;;
23498;SDS011;11926;48.120;11.562;2023-06-10T02:04:11;11.18;;;7.57;;
23498;SDS011;11926;48.120;11.562;2023-06-10T02:06:58;9.43;;;7.57;;
23498;SDS011;11926;48.120;11.562;2023-06-10T02:09:49;9.02;;;7.32;;
23498;SDS011;11926;48.120;11.562;2023-06-10T02:12:37;11.18;;;7.47;;
23498;SDS011;11926;48.120;11.562;2023-06-10T02:15:25;9.23;;;7.38;;
23498;SDS011;11926;48.120;11.562;2023-06-10T02:18:12;9.07;;;7.95;;
23498;SDS011;11926;48.120;11.562;2023-06-10T02:20:59;11.80;;;7.85;;
23498;SDS011;11926;48.120;11.562;2023-06-10T02:23:46;9.57;;;7.60;;
23498;SDS011;11926;48.120;11.562;2023-06-10T02:26:33;13.65;;;8.73;;
23498;SDS011;11926;48.120;11.562;2023-06-10T02:29:21;9.70;;;7.90;;
23498;SDS011;11926;48.120;11.562;2023-06-10T02:32:10;11.30;;;8.50;;
23498;SDS011;11926;48.120;11.562;2023-06-10T02:34:59;12.07;;;8.25;;
23498;SDS011;11926;48.120;11.562;2023-06-10T02:37:47;12.90;;;8.80;;
23498;SDS011;11926;48.120;11.562;2023-06-10T02:40:36;10.23;;;8.15;;
23498;SDS011;11926;48.120;11.562;2023-06-10T02:43:24;10.27;;;8.15;;
23498;SDS011;11926;48.120;11.562;2023-06-10T02:46:13;10.35;;;8.70;;
23498;SDS011;11926;48.120;11.562;2023-06-10T02:49:01;10.30;;;8.93;;
23498;SDS011;11926;48.120;11.562;2023-06-10T02:51:49;11.80;;;9.05;;
23498;SDS011;11926;48.120;11.562;2023-06-10T02:54:39;11.35;;;8.95;;
23498;SDS011;11926;48.120;11.562;2023-06-10T02:57:28;11.05;;;8.88;;
23498;SDS011;11926;48.120;11.562;2023-06-10T03:00:15;12.85;;;8.50;;
23498;SDS011;11926;48.120;11.562;2023-06-10T03:03:07;10.35;;;8.52;;
23498;SDS011;11926;48.120;11.562;2023-06-10T03:06:04;10.93;;;9.07;;
23498;SDS011;11926;48.120;11.562;2023-06-10T03:08:52;10.23;;;8.82;;
23498;SDS011;11926;48.120;11.562;2023-06-10T03:11:40;11.40;;;8.27;;
23498;SDS011;11926;48.120;11.562;2023-06-10T03:14:27;12.23;;;8.43;;
23498;SDS011;11926;48.120;11.562;2023-06-10T03:17:15;11.85;;;9.32;;
23498;SDS011;11926;48.120;11.562;2023-06-10T03:20:05;12.27;;;9.40;;
23498;SDS011;11926;48.120;11.562;2023-06-10T03:22:57;11.77;;;9.43;;
23498;SDS011;11926;48.120;11.562;2023-06-10T03:25:46;9.85;;;8.57;;
23498;SDS011;11926;48.120;11.562;2023-06-10T03:28:36;11.43;;;9.45;;
23498;SDS011;11926;48.120;11.562;2023-06-10T03:31:23;12.43;;;9.70;;
23498;SDS011;11926;48.120;11.562;2023-06-10T03:34:12;13.05;;;9.63;;
23498;SDS011;11926;48.120;11.562;2023-06-10T03:37:01;10.77;;;9.35;;
23498;SDS011;11926;48.120;11.562;2023-06-10T03:39:48;12.85;;;9.98;;
23498;SDS011;11926;48.120;11.562;2023-06-10T03:42:36;13.13;;;10.48;;
23498;SDS011;11926;48.120;11.562;2023-06-10T03:45:24;12.40;;;10.57;;
23498;SDS011;11926;48.120;11.562;2023-06-10T03:48:14;13.63;;;10.07;;
23498;SDS011;11926;48.120;11.562;2023-06-10T03:51:06;14.85;;;11.10;;
23498;SDS011;11926;48.120;11.562;2023-06-10T03:53:54;15.07;;;10.93;;
23498;SDS011;11926;48.120;11.562;2023-06-10T03:56:42;12.20;;;9.85;;
23498;SDS011;11926;48.120;11.562;2023-06-10T03:59:29;15.50;;;10.43;;
23498;SDS011;11926;48.120;11.562;2023-06-10T04:02:16;12.80;;;10.32;;
23498;SDS011;11926;48.120;11.562;2023-06-10T04:05:04;14.93;;;10.73;;
23498;SDS011;11926;48.120;11.562;2023-06-10T04:07:51;13.20;;;11.40;;
23498;SDS011;11926;48.120;11.562;2023-06-10T04:10:40;13.70;;;11.23;;
23498;SDS011;11926;48.120;11.562;2023-06-10T04:13:27;15.38;;;10.98;;
23498;SDS011;11926;48.120;11.562;2023-06-10T04:16:16;17.02;;;11.70;;
23498;SDS011;11926;48.120;11.562;2023-06-10T04:19:05;14.20;;;11.15;;
23498;SDS011;11926;48.120;11.562;2023-06-10T04:21:52;14.45;;;11.23;;
23498;SDS011;11926;48.120;11.562;2023-06-10T04:24:39;14.20;;;11.93;;
23498;SDS011;11926;48.120;11.562;2023-06-10T04:27:29;13.98;;;11.05;;
23498;SDS011;11926;48.120;11.562;2023-06-10T04:30:18;13.43;;;10.90;;
23498;SDS011;11926;48.120;11.562;2023-06-10T04:33:07;13.50;;;10.23;;
23498;SDS011;11926;48.120;11.562;2023-06-10T04:35:57;14.63;;;11.90;;
23498;SDS011;11926;48.120;11.562;2023-06-10T04:38:47;13.55;;;11.55;;
23498;SDS011;11926;48.120;11.562;2023-06-10T04:41:34;14.65;;;11.02;;
23498;SDS011;11926;48.120;11.562;2023-06-10T04:44:23;14.68;;;10.85;;
23498;SDS011;11926;48.120;11.562;2023-06-10T04:47:11;13.23;;;10.98;;
23498;SDS011;11926;48.120;11.562;2023-06-10T04:49:58;14.05;;;10.98;;
23498;SDS011;11926;48.120;11.562;2023-06-10T04:52:46;14.02;;;11.15;;
23498;SDS011;11926;48.120;11.562;2023-06-10T04:55:34;13.85;;;10.65;;
23498;SDS011;11926;48.120;11.562;2023-06-10T04:58:21;14.10;;;11.25;;
23498;SDS011;11926;48.120;11.562;2023-06-10T05:01:10;12.77;;;10.18;;
23498;SDS011;11926;48.120;11.562;2023-06-10T05:03:57;12.32;;;10.00;;
23498;SDS011;11926;48.120;11.562;2023-06-10T05:06:44;13.40;;;10.63;;
23498;SDS011;11926;48.120;11.562;2023-06-10T05:09:31;12.32;;;10.27;;
23498;SDS011;11926;48.120;11.562;2023-06-10T05:12:18;14.20;;;10.98;;
23498;SDS011;11926;48.120;11.562;2023-06-10T05:15:06;12.45;;;10.32;;
23498;SDS011;11926;48.120;11.562;2023-06-10T05:17:56;12.85;;;9.75;;
23498;SDS011;11926;48.120;11.562;2023-06-10T05:20:44;12.27;;;10.27;;
23498;SDS011;11926;48.120;11.562;2023-06-10T05:23:32;15.07;;;10.50;;
23498;SDS011;11926;48.120;11.562;2023-06-10T05:26:20;12.07;;;10.20;;
23498;SDS011;11926;48.120;11.562;2023-06-10T05:29:07;14.02;;;10.73;;
23498;SDS011;11926;48.120;11.562;2023-06-10T05:31:54;13.93;;;10.55;;
23498;SDS011;11926;48.120;11.562;2023-06-10T05:34:44;14.85;;;11.07;;
23498;SDS011;11926;48.120;11.562;2023-06-10T05:37:33;12.85;;;10.63;;
23498;SDS011;11926;48.120;11.562;2023-06-10T05:40:22;12.48;;;10.27;;
23498;SDS011;11926;48.120;11.562;2023-06-10T05:43:09;12.70;;;10.32;;
23498;SDS011;11926;48.120;11.562;2023-06-10T05:45:56;12.57;;;10.70;;
23498;SDS011;11926;48.120;11.562;2023-06-10T05:48:43;12.60;;;10.15;;
23498;SDS011;11926;48.120;11.562;2023-06-10T05:51:31;14.38;;;9.93;;
23498;SDS011;11926;48.120;11.562;2023-06-10T05:54:19;11.85;;;9.90;;
23498;SDS011;11926;48.120;11.562;2023-06-10T05:57:05;12.48;;;9.93;;
23498;SDS011;11926;48.120;11.562;2023-06-10T05:59:52;14.00;;;10.20;;
23498;SDS011;11926;48.120;11.562;2023-06-10T06:02:40;11.80;;;9.85;;
23498;SDS011;11926;48.120;11.562;2023-06-10T06:05:27;11.43;;;9.63;;
23498;SDS011;11926;48.120;11.562;2023-06-10T06:08:21;16.42;;;9.82;;
23498;SDS011;11926;48.120;11.562;2023-06-10T06:11:08;18.30;;;10.45;;
23498;SDS011;11926;48.120;11.562;2023-06-10T06:13:55;12.73;;;9.88;;
23498;SDS011;11926;48.120;11.562;2023-06-10T06:16:43;12.60;;;9.63;;
23498;SDS011;11926;48.120;11.562;2023-06-10T06:19:30;14.18;;;10.13;;
23498;SDS011;11926;48.120;11.562;2023-06-10T06:22:17;12.23;;;9.38;;
23498;SDS011;11926;48.120;11.562;2023-06-10T06:25:09;10.90;;;9.40;;
23498;SDS011;11926;48.120;11.562;2023-06-10T06:27:56;12.00;;;9.25;;
23498;SDS011;11926;48.120;11.562;2023-06-10T06:30:43;12.95;;;9.05;;
23498;SDS011;11926;48.120;11.562;2023-06-10T06:33:31;9.93;;;8.55;;
23498;SDS011;11926;48.120;11.562;2023-06-10T06:36:19;9.65;;;8.40;;
23498;SDS011;11926;48.120;11.562;2023-06-10T06:39:06;10.52;;;8.70;;
23498;SDS011;11926;48.120;11.562;2023-06-10T06:41:55;12.57;;;8.25;;
23498;SDS011;11926;48.120;11.562;2023-06-10T06:45:00;9.93;;;8.13;;
23498;SDS011;11926;48.120;11.562;2023-06-10T06:47:47;12.95;;;9.13;;
23498;SDS011;11926;48.120;11.562;2023-06-10T06:50:35;10.55;;;8.93;;
23498;SDS011;11926;48.120;11.562;2023-06-10T06:53:22;9.52;;;8.45;;
23498;SDS011;11926;48.120;11.562;2023-06-10T06:56:09;9.88;;;8.30;;
23498;SDS011;11926;48.120;11.562;2023-06-10T06:58:58;10.57;;;8.48;;
23498;SDS011;11926;48.120;11.562;2023-06-10T07:01:45;8.63;;;7.65;;
23498;SDS011;11926;48.120;11.562;2023-06-10T07:04:33;10.05;;;7.60;;
23498;SDS011;11926;48.120;11.562;2023-06-10T07:07:20;11.95;;;7.85;;
23498;SDS011;11926;48.120;11.562;2023-06-10T07:10:11;9.80;;;7.55;;
23498;SDS011;11926;48.120;11.562;2023-06-10T07:12:58;9.65;;;6.68;;
23498;SDS011;11926;48.120;11.562;2023-06-10T07:15:46;8.85;;;7.60;;
23498;SDS011;11926;48.120;11.562;2023-06-10T07:18:33;8.38;;;6.85;;
23498;SDS011;11926;48.120;11.562;2023-06-10T07:21:20;10.45;;;7.57;;
23498;SDS011;11926;48.120;11.562;2023-06-10T07:24:08;10.10;;;7.65;;
23498;SDS011;11926;48.120;11.562;2023-06-10T07:26:55;9.82;;;7.10;;
23498;SDS011;11926;48.120;11.562;2023-06-10T07:29:43;9.27;;;6.82;;
23498;SDS011;11926;48.120;11.562;2023-06-10T07:32:31;8.10;;;6.82;;
23498;SDS011;11926;48.120;11.562;2023-06-10T07:35:19;8.50;;;6.95;;
23498;SDS011;11926;48.120;11.562;2023-06-10T07:38:06;8.35;;;6.30;;
23498;SDS011;11926;48.120;11.562;2023-06-10T07:40:53;8.02;;;6.50;;
23498;SDS011;11926;48.120;11.562;2023-06-10T07:43:40;8.00;;;6.63;;
23498;SDS011;11926;48.120;11.562;2023-06-10T07:46:26;8.30;;;6.68;;
23498;SDS011;11926;48.120;11.562;2023-06-10T07:49:15;6.63;;;5.20;;
23498;SDS011;11926;48.120;11.562;2023-06-10T07:52:02;6.68;;;5.50;;
23498;SDS011;11926;48.120;11.562;2023-06-10T07:54:49;10.93;;;5.80;;
23498;SDS011;11926;48.120;11.562;2023-06-10T07:57:36;6.45;;;5.72;;
23498;SDS011;11926;48.120;11.562;2023-06-10T08:00:24;8.55;;;5.75;;
23498;SDS011;11926;48.120;11.562;2023-06-10T08:03:11;5.70;;;5.10;;
23498;SDS011;11926;48.120;11.562;2023-06-10T08:05:59;7.65;;;5.50;;
23498;SDS011;11926;48.120;11.562;2023-06-10T08:08:47;7.53;;;6.00;;
23498;SDS011;11926;48.120;11.562;2023-06-10T08:11:34;6.75;;;5.60;;
23498;SDS011;11926;48.120;11.562;2023-06-10T08:14:21;8.40;;;5.88;;
23498;SDS011;11926;48.120;11.562;2023-06-10T08:17:08;6.90;;;5.38;;
23498;SDS011;11926;48.120;11.562;2023-06-10T08:19:57;8.05;;;5.50;;
23498;SDS011;11926;48.120;11.562;2023-06-10T08:22:49;6.57;;;5.10;;
23498;SDS011;11926;48.120;11.562;2023-06-10T08:25:36;6.65;;;4.57;;
23498;SDS011;11926;48.120;11.562;2023-06-10T08:28:22;5.38;;;4.85;;
23498;SDS011;11926;48.120;11.562;2023-06-10T08:31:09;5.85;;;5.25;;
23498;SDS011;11926;48.120;11.562;2023-06-10T08:33:56;7.47;;;5.63;;
23498;SDS011;11926;48.120;11.562;2023-06-10T08:36:43;7.22;;;6.32;;
23498;SDS011;11926;48.120;11.562;2023-06-10T08:39:32;7.53;;;6.10;;
23498;SDS011;11926;48.120;11.562;2023-06-10T08:42:22;7.47;;;6.07;;
23498;SDS011;11926;48.120;11.562;2023-06-10T08:45:12;6.65;;;5.20;;
23498;SDS011;11926;48.120;11.562;2023-06-10T08:48:03;7.23;;;5.10;;
23498;SDS011;11926;48.120;11.562;2023-06-10T08:50:55;6.13;;;4.97;;
23498;SDS011;11926;48.120;11.562;2023-06-10T08:53:45;5.30;;;4.72;;
23498;SDS011;11926;48.120;11.562;2023-06-10T08:56:40;6.15;;;5.35;;
23498;SDS011;11926;48.120;11.562;2023-06-10T08:59:29;5.75;;;5.20;;
23498;SDS011;11926;48.120;11.562;2023-06-10T09:02:16;6.38;;;5.70;;
23498;SDS011;11926;48.120;11.562;2023-06-10T09:05:06;9.65;;;7.57;;
23498;SDS011;11926;48.120;11.562;2023-06-10T09:07:54;9.63;;;7.35;;
23498;SDS011;11926;48.120;11.562;2023-06-10T09:10:43;7.15;;;5.95;;
23498;SDS011;11926;48.120;11.562;2023-06-10T09:13:32;7.13;;;5.93;;
23498;SDS011;11926;48.120;11.562;2023-06-10T09:16:19;7.65;;;6.28;;
23498;SDS011;11926;48.120;11.562;2023-06-10T09:19:06;6.45;;;4.95;;
23498;SDS011;11926;48.120;11.562;2023-06-10T09:21:55;7.68;;;5.32;;
23498;SDS011;11926;48.120;11.562;2023-06-10T09:24:42;10.27;;;7.22;;
23498;SDS011;11926;48.120;11.562;2023-06-10T09:27:29;7.03;;;6.00;;
23498;SDS011;11926;48.120;11.562;2023-06-10T09:30:27;7.80;;;6.05;;
23498;SDS011;11926;48.120;11.562;2023-06-10T09:33:15;5.70;;;4.97;;
23498;SDS011;11926;48.120;11.562;2023-06-10T09:36:03;5.32;;;4.47;;
23498;SDS011;11926;48.120;11.562;2023-06-10T09:38:50;6.65;;;4.80;;
23498;SDS011;11926;48.120;11.562;2023-06-10T09:41:39;5.47;;;4.80;;
23498;SDS011;11926;48.120;11.562;2023-06-10T09:44:27;7.28;;;4.93;;
23498;SDS011;11926;48.120;11.562;2023-06-10T09:47:21;5.60;;;4.82;;
23498;SDS011;11926;48.120;11.562;2023-06-10T09:50:09;6.55;;;5.05;;
23498;SDS011;11926;48.120;11.562;2023-06-10T09:52:58;5.50;;;4.82;;
23498;SDS011;11926;48.120;11.562;2023-06-10T09:55:47;5.03;;;4.53;;
23498;SDS011;11926;48.120;11.562;2023-06-10T09:58:35;4.85;;;3.92;;
23498;SDS011;11926;48.120;11.562;2023-06-10T10:01:23;5.28;;;4.00;;
23498;SDS011;11926;48.120;11.562;2023-06-10T10:04:12;5.38;;;3.65;;
23498;SDS011;11926;48.120;11.562;2023-06-10T10:06:58;4.97;;;3.80;;
23498;SDS011;11926;48.120;11.562;2023-06-10T10:09:45;4.38;;;3.42;;
23498;SDS011;11926;48.120;11.562;2023-06-10T10:12:32;5.90;;;3.67;;
23498;SDS011;11926;48.120;11.562;2023-06-10T10:15:20;3.85;;;3.42;;
23498;SDS011;11926;48.120;11.562;2023-06-10T10:18:10;4.40;;;3.72;;
23498;SDS011;11926;48.120;11.562;2023-06-10T10:21:05;4.88;;;3.85;;
23498;SDS011;11926;48.120;11.562;2023-06-10T10:23:58;5.45;;;3.45;;
23498;SDS011;11926;48.120;11.562;2023-06-10T10:26:49;4.30;;;3.40;;
23498;SDS011;11926;48.120;11.562;2023-06-10T10:29:38;3.92;;;3.40;;
23498;SDS011;11926;48.120;11.562;2023-06-10T10:32:26;5.70;;;3.47;;
23498;SDS011;11926;48.120;11.562;2023-06-10T10:35:21;4.40;;;2.88;;
23498;SDS011;11926;48.120;11.562;2023-06-10T10:38:10;5.68;;;3.33;;
23498;SDS011;11926;48.120;11.562;2023-06-10T10:40:58;4.82;;;3.35;;
23498;SDS011;11926;48.120;11.562;2023-06-10T10:43:46;5.55;;;3.45;;
23498;SDS011;11926;48.120;11.562;2023-06-10T10:46:41;4.53;;;3.10;;
23498;SDS011;11926;48.120;11.562;2023-06-10T10:49:30;5.03;;;3.75;;
23498;SDS011;11926;48.120;11.562;2023-06-10T10:52:18;5.32;;;3.92;;
23498;SDS011;11926;48.120;11.562;2023-06-10T10:55:07;6.30;;;4.00;;
23498;SDS011;11926;48.120;11.562;2023-06-10T10:58:00;5.43;;;3.95;;
23498;SDS011;11926;48.120;11.562;2023-06-10T11:00:50;4.13;;;3.60;;
23498;SDS011;11926;48.120;11.562;2023-06-10T11:03:42;6.15;;;4.32;;
23498;SDS011;11926;48.120;11.562;2023-06-10T11:06:32;5.55;;;3.50;;
23498;SDS011;11926;48.120;11.562;2023-06-10T11:09:27;4.75;;;3.65;;
23498;SDS011;11926;48.120;11.562;2023-06-10T11:12:20;4.78;;;2.90;;
23498;SDS011;11926;48.120;11.562;2023-06-10T11:15:09;6.47;;;4.25;;
23498;SDS011;11926;48.120;11.562;2023-06-10T11:23:46;4.30;;;3.38;;
23498;SDS011;11926;48.120;11.562;2023-06-10T11:26:35;3.75;;;3.13;;
23498;SDS011;11926;48.120;11.562;2023-06-10T11:29:32;4.68;;;3.45;;
23498;SDS011;11926;48.120;11.562;2023-06-10T11:32:20;5.70;;;3.17;;
23498;SDS011;11926;48.120;11.562;2023-06-10T11:35:08;6.05;;;2.90;;
23498;SDS011;11926;48.120;11.562;2023-06-10T11:37:55;4.55;;;3.35;;
23498;SDS011;11926;48.120;11.562;2023-06-10T11:40:46;3.83;;;3.20;;
23498;SDS011;11926;48.120;11.562;2023-06-10T11:43:34;7.68;;;2.92;;
23498;SDS011;11926;48.120;11.562;2023-06-10T11:46:23;5.22;;;3.38;;
23498;SDS011;11926;48.120;11.562;2023-06-10T11:49:14;5.28;;;3.35;;
23498;SDS011;11926;48.120;11.562;2023-06-10T11:52:03;4.65;;;3.60;;
23498;SDS011;11926;48.120;11.562;2023-06-10T11:54:53;4.03;;;2.97;;
23498;SDS011;11926;48.120;11.562;2023-06-10T11:57:40;4.18;;;3.03;;
23498;SDS011;11926;48.120;11.562;2023-06-10T12:00:27;4.00;;;2.78;;
23498;SDS011;11926;48.120;11.562;2023-06-10T12:03:16;8.45;;;6.32;;
23498;SDS011;11926;48.120;11.562;2023-06-10T12:06:04;5.55;;;3.25;;
23498;SDS011;11926;48.120;11.562;2023-06-10T12:08:53;4.32;;;3.20;;
23498;SDS011;11926;48.120;11.562;2023-06-10T12:11:58;4.07;;;3.13;;
23498;SDS011;11926;48.120;11.562;2023-06-10T12:14:52;5.40;;;2.63;;
23498;SDS011;11926;48.120;11.562;2023-06-10T12:17:42;4.80;;;2.90;;
23498;SDS011;11926;48.120;11.562;2023-06-10T12:20:31;4.05;;;3.00;;
23498;SDS011;11926;48.120;11.562;2023-06-10T12:23:19;3.50;;;2.97;;
23498;SDS011;11926;48.120;11.562;2023-06-10T12:26:06;57.95;;;5.15;;
23498;SDS011;11926;48.120;11.562;2023-06-10T12:28:54;4.35;;;2.60;;
23498;SDS011;11926;48.120;11.562;2023-06-10T12:34:44;4.22;;;2.40;;
23498;SDS011;11926;48.120;11.562;2023-06-10T12:37:33;2.95;;;2.53;;
23498;SDS011;11926;48.120;11.562;2023-06-10T12:40:27;3.20;;;2.60;;
23498;SDS011;11926;48.120;11.562;2023-06-10T12:43:19;3.05;;;2.30;;
23498;SDS011;11926;48.120;11.562;2023-06-10T12:46:08;3.42;;;2.25;;
23498;SDS011;11926;48.120;11.562;2023-06-10T12:48:57;3.60;;;2.47;;
23498;SDS011;11926;48.120;11.562;2023-06-10T12:51:45;3.30;;;2.40;;
23498;SDS011;11926;48.120;11.562;2023-06-10T12:54:33;3.40;;;2.00;;
23498;SDS011;11926;48.120;11.562;2023-06-10T12:57:21;2.78;;;2.10;;
23498;SDS011;11926;48.120;11.562;2023-06-10T13:00:25;3.03;;;2.20;;
23498;SDS011;11926;48.120;11.562;2023-06-10T13:03:15;3.38;;;2.38;;
23498;SDS011;11926;48.120;11.562;2023-06-10T13:06:02;3.45;;;2.30;;
23498;SDS011;11926;48.120;11.562;2023-06-10T13:08:50;3.10;;;2.53;;
23498;SDS011;11926;48.120;11.562;2023-06-10T13:11:39;5.95;;;3.45;;
23498;SDS011;11926;48.120;11.562;2023-06-10T13:14:27;4.13;;;3.45;;
23498;SDS011;11926;48.120;11.562;2023-06-10T13:17:15;4.05;;;3.20;;
23498;SDS011;11926;48.120;11.562;2023-06-10T13:20:02;4.80;;;3.83;;
23498;SDS011;11926;48.120;11.562;2023-06-10T13:22:50;4.90;;;4.07;;
23498;SDS011;11926;48.120;11.562;2023-06-10T13:25:38;4.57;;;3.25;;
23498;SDS011;11926;48.120;11.562;2023-06-10T13:28:27;6.18;;;3.40;;
23498;SDS011;11926;48.120;11.562;2023-06-10T13:31:16;6.55;;;4.05;;
23498;SDS011;11926;48.120;11.562;2023-06-10T13:34:06;6.88;;;3.85;;
23498;SDS011;11926;48.120;11.562;2023-06-10T13:36:53;4.30;;;3.40;;
23498;SDS011;11926;48.120;11.562;2023-06-10T13:39:40;6.05;;;3.83;;
23498;SDS011;11926;48.120;11.562;2023-06-10T13:42:27;4.85;;;3.50;;
23498;SDS011;11926;48.120;11.562;2023-06-10T13:45:17;3.90;;;3.00;;
23498;SDS011;11926;48.120;11.562;2023-06-10T13:48:04;4.32;;;3.50;;
23498;SDS011;11926;48.120;11.562;2023-06-10T13:50:51;6.97;;;3.40;;
23498;SDS011;11926;48.120;11.562;2023-06-10T13:53:38;4.05;;;2.92;;
23498;SDS011;11926;48.120;11.562;2023-06-10T13:56:25;7.88;;;3.17;;
23498;SDS011;11926;48.120;11.562;2023-06-10T13:59:12;5.60;;;3.38;;
23498;SDS011;11926;48.120;11.562;2023-06-10T14:02:01;7.07;;;3.30;;
23498;SDS011;11926;48.120;11.562;2023-06-10T14:04:49;4.07;;;2.70;;
23498;SDS011;11926;48.120;11.562;2023-06-10T14:07:37;5.90;;;2.72;;
23498;SDS011;11926;48.120;11.562;2023-06-10T14:10:25;15.45;;;3.10;;
23498;SDS011;11926;48.120;11.562;2023-06-10T14:13:13;5.10;;;2.70;;
23498;SDS011;11926;48.120;11.562;2023-06-10T14:16:00;3.30;;;2.60;;
23498;SDS011;11926;48.120;11.562;2023-06-10T14:18:49;3.85;;;2.55;;
23498;SDS011;11926;48.120;11.562;2023-06-10T14:21:36;4.03;;;3.22;;
23498;SDS011;11926;48.120;11.562;2023-06-10T14:24:23;4.97;;;3.40;;
23498;SDS011;11926;48.120;11.562;2023-06-10T14:27:10;3.75;;;2.75;;
23498;SDS011;11926;48.120;11.562;2023-06-10T14:29:57;36.70;;;4.18;;
23498;SDS011;11926;48.120;11.562;2023-06-10T14:32:44;3.95;;;2.90;;
23498;SDS011;11926;48.120;11.562;2023-06-10T14:35:32;3.60;;;3.00;;
23498;SDS011;11926;48.120;11.562;2023-06-10T14:38:19;3.47;;;2.55;;
23498;SDS011;11926;48.120;11.562;2023-06-10T14:41:06;4.03;;;2.75;;
23498;SDS011;11926;48.120;11.562;2023-06-10T14:43:53;3.55;;;2.88;;
23498;SDS011;11926;48.120;11.562;2023-06-10T14:46:40;4.07;;;3.20;;
23498;SDS011;11926;48.120;11.562;2023-06-10T14:49:28;3.67;;;2.97;;
23498;SDS011;11926;48.120;11.562;2023-06-10T14:52:16;4.88;;;3.17;;
23498;SDS011;11926;48.120;11.562;2023-06-10T14:55:03;3.85;;;3.08;;
23498;SDS011;11926;48.120;11.562;2023-06-10T14:57:50;3.85;;;3.13;;
23498;SDS011;11926;48.120;11.562;2023-06-10T15:00:37;3.15;;;2.65;;
23498;SDS011;11926;48.120;11.562;2023-06-10T15:03:24;4.18;;;2.95;;
23498;SDS011;11926;48.120;11.562;2023-06-10T15:06:11;4.72;;;3.00;;
23498;SDS011;11926;48.120;11.562;2023-06-10T15:09:03;5.95;;;3.17;;
23498;SDS011;11926;48.120;11.562;2023-06-10T15:11:51;7.38;;;2.78;;
23498;SDS011;11926;48.120;11.562;2023-06-10T15:14:38;5.30;;;2.85;;
23498;SDS011;11926;48.120;11.562;2023-06-10T15:17:25;4.90;;;3.13;;
23498;SDS011;11926;48.120;11.562;2023-06-10T15:20:12;6.75;;;3.58;;
23498;SDS011;11926;48.120;11.562;2023-06-10T15:22:59;5.35;;;3.58;;
23498;SDS011;11926;48.120;11.562;2023-06-10T15:25:48;6.32;;;3.60;;
23498;SDS011;11926;48.120;11.562;2023-06-10T15:28:35;5.90;;;4.03;;
23498;SDS011;11926;48.120;11.562;2023-06-10T15:31:22;4.53;;;3.22;;
23498;SDS011;11926;48.120;11.562;2023-06-10T15:34:09;5.85;;;3.90;;
23498;SDS011;11926;48.120;11.562;2023-06-10T15:36:56;7.13;;;4.10;;
23498;SDS011;11926;48.120;11.562;2023-06-10T15:39:43;8.27;;;6.13;;
23498;SDS011;11926;48.120;11.562;2023-06-10T15:42:32;6.47;;;3.65;;
23498;SDS011;11926;48.120;11.562;2023-06-10T15:45:19;11.98;;;6.90;;
23498;SDS011;11926;48.120;11.562;2023-06-10T15:48:06;4.35;;;3.25;;
23498;SDS011;11926;48.120;11.562;2023-06-10T15:50:53;4.60;;;3.25;;
23498;SDS011;11926;48.120;11.562;2023-06-10T15:53:40;3.85;;;2.92;;
23498;SDS011;11926;48.120;11.562;2023-06-10T15:56:27;5.05;;;3.75;;
23498;SDS011;11926;48.120;11.562;2023-06-10T15:59:15;4.57;;;3.38;;
23498;SDS011;11926;48.120;11.562;2023-06-10T16:02:02;7.88;;;3.60;;
23498;SDS011;11926;48.120;11.562;2023-06-10T16:04:50;4.45;;;3.42;;
23498;SDS011;11926;48.120;11.562;2023-06-10T16:07:37;6.43;;;4.00;;
23498;SDS011;11926;48.120;11.562;2023-06-10T16:10:26;6.30;;;4.18;;
23498;SDS011;11926;48.120;11.562;2023-06-10T16:13:13;7.05;;;4.20;;
23498;SDS011;11926;48.120;11.562;2023-06-10T16:16:01;6.35;;;4.65;;
23498;SDS011;11926;48.120;11.562;2023-06-10T16:18:48;6.10;;;4.28;;
23498;SDS011;11926;48.120;11.562;2023-06-10T16:21:35;4.30;;;3.80;;
23498;SDS011;11926;48.120;11.562;2023-06-10T16:24:25;5.28;;;4.30;;
23498;SDS011;11926;48.120;11.562;2023-06-10T16:27:14;8.07;;;4.10;;
23498;SDS011;11926;48.120;11.562;2023-06-10T16:30:01;7.22;;;3.97;;
23498;SDS011;11926;48.120;11.562;2023-06-10T16:32:51;7.28;;;4.55;;
23498;SDS011;11926;48.120;11.562;2023-06-10T16:35:38;6.85;;;5.10;;
23498;SDS011;11926;48.120;11.562;2023-06-10T16:38:25;8.65;;;4.50;;
23498;SDS011;11926;48.120;11.562;2023-06-10T16:41:11;4.82;;;3.90;;